Time;durP1;ratioP1;P1;durP2;ratioP2;P2;SDS_P1;SDS_P2;PMS_P1;PMS_P2;Temp;Humidity;BMP_temperature;BMP_pressure;BME280_temperature;BME280_humidity;BME280_pressure;Samples;Min_cycle;Max_cycle;Signal;HPM_P1;HPM_P2
2022/01/23 00:01:08;;;;;;;20.55;7.28;;;;;;;-5.91;67.90;95449.75;5001683;28;20125;-91
2022/01/23 00:03:34;;;;;;;15.77;6.20;;;;;;;-6.53;67.46;95354.06;5002010;28;20033;-90
2022/01/23 00:05:59;;;;;;;13.18;6.28;;;;;;;-7.46;67.68;95190.50;5001501;28;20040;-92
2022/01/23 00:08:25;;;;;;;12.95;6.20;;;;;;;-5.03;67.97;95577.03;5001655;28;20112;-91
2022/01/23 00:10:52;;;;;;;13.07;5.22;;;;;;;-7.65;67.84;95198.56;5002037;28;20046;-92
2022/01/23 00:17:13;;;;;;;9.65;4.50;;;;;;;-5.18;68.46;95584.69;5001474;28;20034;-91
2022/01/23 00:18:51;;;;;;;17.50;5.73;;;;;;;-6.64;68.66;95408.59;5020508;28;20080;-92
2022/01/23 00:21:16;;;;;;;14.17;5.63;;;;;;;-6.42;68.81;95433.72;5002339;28;20029;-90
2022/01/23 00:31:38;;;;;;;10.93;5.40;;;;;;;-5.97;70.24;95489.97;5019498;28;20560;-91
2022/01/23 00:34:03;;;;;;;16.67;5.68;;;;;;;-5.93;69.99;95496.41;5001047;28;20112;-90
2022/01/23 00:36:30;;;;;;;13.48;5.82;;;;;;;-6.25;69.75;95458.53;5002269;28;20105;-90
2022/01/23 00:38:56;;;;;;;14.60;6.18;;;;;;;-5.30;70.28;95601.53;5019435;28;20057;-91
2022/01/23 00:41:22;;;;;;;11.98;5.75;;;;;;;-5.91;70.52;95519.50;5001327;28;20034;-91
2022/01/23 00:43:50;;;;;;;13.07;6.05;;;;;;;-7.76;70.51;95238.31;5018856;28;20080;-91
2022/01/23 00:49:35;;;;;;;12.38;5.68;;;;;;;-5.36;71.10;95593.66;5017980;28;20045;-91
2022/01/23 00:51:37;;;;;;;13.13;5.85;;;;;;;-5.84;71.27;95517.84;5011016;28;20643;-91
2022/01/23 00:54:12;;;;;;;11.60;5.10;;;;;;;-6.73;71.06;95399.25;5000488;28;20049;-91
2022/01/23 00:56:38;;;;;;;12.88;5.80;;;;;;;-5.42;72.24;95600.28;5000815;28;20129;-91
2022/01/23 00:59:04;;;;;;;10.02;5.30;;;;;;;-5.42;71.58;95608.03;5000172;28;20141;-91
2022/01/23 01:01:30;;;;;;;12.25;5.97;;;;;;;-5.72;72.18;95560.41;5000544;28;20117;-92
2022/01/23 01:03:55;;;;;;;12.00;6.33;;;;;;;-6.65;71.83;95433.56;5000593;28;20136;-91
2022/01/23 01:06:21;;;;;;;13.50;5.97;;;;;;;-6.35;71.98;95475.97;5018047;28;20030;-91
2022/01/23 01:08:49;;;;;;;10.35;5.93;;;;;;;-7.72;72.74;95238.81;5018173;28;20074;-91
2022/01/23 01:14:09;;;;;;;11.65;6.13;;;;;;;-5.51;72.68;95607.25;5018529;28;20046;-92
2022/01/23 01:30:30;;;;;;;13.60;6.75;;;;;;;-6.07;72.79;95564.22;5003142;28;20045;-91
2022/01/23 01:33:12;;;;;;;13.10;6.07;;;;;;;-6.33;73.09;95512.72;5001149;28;20038;-91
2022/01/23 01:35:44;;;;;;;11.77;6.13;;;;;;;-6.90;73.03;95413.09;5007596;28;20072;-90
2022/01/23 01:38:09;;;;;;;;;;;;;;;-5.58;73.68;95598.53;5005609;28;20099;-91
2022/01/23 01:40:36;;;;;;;14.23;6.10;;;;;;;-7.50;72.87;95323.16;5001204;28;20380;-92
2022/01/23 01:43:02;;;;;;;14.67;7.13;;;;;;;-5.71;72.65;95594.81;5000867;28;20128;-92
2022/01/23 01:45:29;;;;;;;10.67;6.20;;;;;;;-6.73;73.60;95472.25;5000110;28;20055;-90
2022/01/23 01:47:59;;;;;;;11.23;5.97;;;;;;;-7.46;73.10;95340.72;5000146;28;20528;-90
2022/01/23 01:50:24;;;;;;;13.43;6.30;;;;;;;-6.56;73.86;95492.91;4984073;28;20034;-91
2022/01/23 01:52:50;;;;;;;12.20;6.00;;;;;;;-8.34;73.62;95230.69;4999741;28;20045;-91
2022/01/23 01:55:24;;;;;;;12.67;6.50;;;;;;;-5.88;73.57;95594.06;4999328;28;20523;-91
2022/01/23 01:57:55;;;;;;;15.13;6.53;;;;;;;-6.79;73.71;95454.06;4999487;28;20068;-90
2022/01/23 02:10:53;;;;;;;15.60;6.73;;;;;;;-7.32;73.55;95352.16;5018303;28;20029;-90
2022/01/23 02:13:30;;;;;;;12.63;6.70;;;;;;;-9.01;72.95;95068.69;4999940;28;20030;-90
2022/01/23 02:53:39;;;;;;;11.98;6.75;;;;;;;-7.23;72.04;95417.41;4955779;29;20443;-91
2022/01/23 02:56:18;;;;;;;13.27;7.27;;;;;;;-7.35;72.32;95434.94;4994339;28;20042;-90
2022/01/23 02:59:12;;;;;;;17.20;8.07;;;;;;;-6.74;72.53;95508.53;4998681;28;20115;-91
2022/01/23 03:01:34;;;;;;;19.60;7.93;;;;;;;-6.76;72.01;95538.81;5015348;28;20101;-91
2022/01/23 03:04:04;;;;;;;14.27;7.37;;;;;;;-6.89;72.90;95512.69;4998829;28;20030;-91
2022/01/23 03:06:53;;;;;;;15.83;7.47;;;;;;;-6.31;72.19;95585.66;5016891;28;20449;-91
2022/01/23 03:14:44;;;;;;;20.33;8.67;;;;;;;-6.03;72.32;95635.22;5016575;28;20535;-91
2022/01/23 03:30:40;;;;;;;19.77;7.73;;;;;;;-8.11;72.00;95342.31;5016898;28;20064;-91
2022/01/23 03:33:05;;;;;;;16.97;7.93;;;;;;;-6.76;71.64;95547.38;4998619;28;20042;-91
2022/01/23 03:35:31;;;;;;;16.17;8.00;;;;;;;-6.98;72.32;95518.78;4998652;28;20040;-92
2022/01/23 03:37:57;;;;;;;16.33;7.27;;;;;;;-6.56;70.85;95590.97;4998066;28;20026;-92
2022/01/23 03:40:24;;;;;;;21.87;8.53;;;;;;;-9.39;71.56;95144.47;4997908;28;20034;-91
2022/01/23 03:43:07;;;;;;;17.53;7.27;;;;;;;-7.50;71.17;95446.81;5016449;28;20038;-91
2022/01/23 03:50:41;;;;;;;18.03;7.87;;;;;;;-6.93;71.02;95512.19;5016605;28;20559;-92
2022/01/23 03:53:07;;;;;;;15.00;7.47;;;;;;;-6.38;70.77;95607.09;5016189;28;20048;-91
2022/01/23 03:55:33;;;;;;;15.60;7.90;;;;;;;-6.81;70.54;95559.13;4982612;28;20132;-91
2022/01/23 03:57:59;;;;;;;14.93;8.30;;;;;;;-6.96;70.63;95528.00;4997975;28;20084;-91
2022/01/23 04:00:36;;;;;;;16.55;7.95;;;;;;;-6.92;70.89;95500.09;3895491;28;10001907;-92
2022/01/23 04:03:02;;;;;;;20.03;9.53;;;;;;;-7.08;70.83;95487.97;1724258;28;10002017;-91
2022/01/23 04:05:27;;;;;;;19.13;9.17;;;;;;;-5.76;69.92;95665.06;4999182;28;20292;-91
2022/01/23 04:07:53;;;;;;;17.70;8.40;;;;;;;-6.82;69.88;95531.72;4982678;28;20038;-91
2022/01/23 04:10:21;;;;;;;18.27;7.73;;;;;;;-8.31;69.92;95341.75;4999112;28;20038;-91
2022/01/23 04:13:13;;;;;;;18.07;8.30;;;;;;;-8.16;69.66;95339.38;4998493;28;20037;-91
2022/01/23 04:16:12;;;;;;;16.97;7.67;;;;;;;-6.09;70.35;95681.50;4998075;28;20045;-91
2022/01/23 05:04:17;;;;;;;28.27;9.05;;;;;;;-8.13;68.41;95330.56;5018799;28;20129;-91
2022/01/23 05:06:46;;;;;;;20.10;8.77;;;;;;;-6.41;68.48;95610.81;5018837;28;20120;-92
2022/01/23 05:09:13;;;;;;;20.30;9.17;;;;;;;-5.80;68.26;95706.91;5001131;28;20037;-92
2022/01/23 05:11:47;;;;;;;15.87;8.23;;;;;;;-7.87;68.25;95411.91;5001328;28;20116;-91
2022/01/23 05:14:13;;;;;;;20.23;8.87;;;;;;;-9.94;67.53;95043.91;5020089;28;20472;-92
2022/01/23 05:16:38;;;;;;;19.90;8.10;;;;;;;-6.14;67.69;95645.06;5001005;28;20047;-91
2022/01/23 05:19:05;;;;;;;17.07;7.27;;;;;;;-5.81;68.31;95729.34;5020188;28;20097;-91
2022/01/23 05:24:20;;;;;;;16.77;7.90;;;;;;;-6.79;67.51;95568.31;5038409;28;20072;-91
2022/01/23 05:26:46;;;;;;;12.50;6.88;;;;;;;-6.04;68.00;95681.88;5015374;28;20089;-91
2022/01/23 05:29:14;;;;;;;14.68;7.03;;;;;;;-8.76;67.99;95246.91;5020819;28;20029;-91
2022/01/23 05:31:40;;;;;;;21.20;6.83;;;;;;;-6.00;67.95;95681.38;5001905;28;20025;-91
2022/01/23 05:34:06;;;;;;;13.47;7.03;;;;;;;-8.33;67.03;95319.75;5018445;28;20080;-91
2022/01/23 05:36:31;;;;;;;14.23;7.13;;;;;;;-8.78;66.65;95242.88;5000908;28;20040;-91
2022/01/23 05:38:57;;;;;;;13.80;6.23;;;;;;;-8.53;67.10;95301.16;5001161;28;20040;-91
2022/01/23 05:41:22;;;;;;;12.20;6.33;;;;;;;-6.79;67.35;95567.53;5001545;28;20065;-92
2022/01/23 05:43:48;;;;;;;16.30;7.03;;;;;;;-6.06;68.14;95673.47;5000037;28;20086;-92
2022/01/23 05:46:13;;;;;;;12.40;6.57;;;;;;;-6.07;67.99;95666.69;5000510;28;20037;-91
2022/01/23 05:48:39;;;;;;;20.23;7.30;;;;;;;-6.17;68.14;95661.66;5000232;28;20116;-91
2022/01/23 05:51:06;;;;;;;11.47;5.63;;;;;;;-8.60;66.78;95287.31;5000620;28;20111;-91
2022/01/23 05:53:32;;;;;;;11.03;5.53;;;;;;;-6.86;67.15;95563.94;5000261;28;20056;-92
2022/01/23 05:55:57;;;;;;;15.03;6.70;;;;;;;-7.52;66.29;95466.75;5000074;28;20810;-91
2022/01/23 05:58:23;;;;;;;15.33;7.23;;;;;;;-8.59;67.50;95289.72;4989561;28;20026;-91
2022/01/23 06:00:56;;;;;;;14.45;5.45;;;;;;;-7.16;67.39;95529.19;1569672;28;10022802;-91
2022/01/23 06:03:21;;;;;;;14.87;6.80;;;;;;;-6.42;67.14;95653.06;3979358;28;10001049;-92
2022/01/23 06:05:48;;;;;;;12.07;6.20;;;;;;;-5.92;67.86;95724.50;5000023;28;20025;-91
2022/01/23 06:08:13;;;;;;;18.57;7.33;;;;;;;-7.56;68.27;95504.09;5017789;28;20489;-91
2022/01/23 06:10:57;;;;;;;15.37;6.97;;;;;;;-6.37;67.12;95663.72;4999689;28;20092;-91
2022/01/23 06:13:24;;;;;;;15.67;7.37;;;;;;;-7.46;67.33;95482.41;4999711;28;20042;-92
2022/01/23 06:15:50;;;;;;;16.43;6.77;;;;;;;-7.26;67.74;95533.69;5017522;28;20030;-91
2022/01/23 06:18:15;;;;;;;10.90;6.20;;;;;;;-6.74;67.82;95633.13;5000877;28;20400;-92
2022/01/23 06:20:41;;;;;;;11.30;6.00;;;;;;;-7.16;67.60;95554.97;5008141;28;20042;-92
2022/01/23 06:23:06;;;;;;;17.27;7.50;;;;;;;-8.12;67.73;95396.50;5007394;28;20053;-92
2022/01/23 06:25:34;;;;;;;19.57;9.43;;;;;;;-7.01;66.67;95574.84;5007534;28;20026;-92
2022/01/23 06:28:00;;;;;;;20.53;8.03;;;;;;;-6.81;66.76;95628.75;5000474;28;20201;-91
2022/01/23 06:30:26;;;;;;;16.63;8.43;;;;;;;-7.92;67.15;95485.41;4999584;28;20045;-92
2022/01/23 06:32:52;;;;;;;22.97;8.60;;;;;;;-6.06;67.28;95725.91;4999357;28;20025;-92
2022/01/23 06:35:17;;;;;;;19.37;9.13;;;;;;;-6.67;67.15;95638.47;4999931;28;20037;-90
2022/01/23 06:37:43;;;;;;;20.40;9.07;;;;;;;-7.84;66.76;95439.91;5017052;28;20037;-91
2022/01/23 06:40:09;;;;;;;29.80;10.83;;;;;;;-8.33;66.42;95337.75;4999126;28;20034;-92
2022/01/23 06:42:34;;;;;;;24.87;10.17;;;;;;;-5.82;66.11;95724.31;4999499;28;20121;-91
2022/01/23 06:45:00;;;;;;;24.60;10.30;;;;;;;-6.31;65.99;95662.28;4998730;28;20126;-92
2022/01/23 06:47:25;;;;;;;27.67;10.07;;;;;;;-8.62;66.48;95294.38;4999231;28;20547;-92
2022/01/23 06:49:51;;;;;;;26.67;11.03;;;;;;;-7.81;66.06;95451.69;5000003;28;20034;-92
2022/01/23 06:52:17;;;;;;;19.73;9.77;;;;;;;-8.37;66.70;95347.53;4999558;28;20107;-91
2022/01/23 06:54:42;;;;;;;20.67;10.02;;;;;;;-6.79;67.43;95606.22;4983248;28;20033;-91
2022/01/23 06:57:08;;;;;;;22.27;9.67;;;;;;;-6.86;67.49;95605.19;5016091;28;20030;-91
2022/01/23 06:59:34;;;;;;;29.77;10.90;;;;;;;-6.58;67.89;95641.91;4999641;28;20128;-91
2022/01/23 07:01:59;;;;;;;23.53;9.40;;;;;;;-6.77;67.62;95599.91;4999028;28;20040;-91
2022/01/23 07:04:25;;;;;;;20.10;8.93;;;;;;;-7.90;66.75;95426.84;5017622;28;20034;-92
2022/01/23 07:06:52;;;;;;;17.93;9.00;;;;;;;-8.14;66.90;95360.63;4999405;28;20029;-92
2022/01/23 07:09:18;;;;;;;17.17;9.07;;;;;;;-8.86;66.50;95250.56;4999638;28;20061;-92
2022/01/23 07:11:44;;;;;;;19.77;9.23;;;;;;;-8.55;67.36;95299.72;4999935;28;20200;-91
2022/01/23 07:14:10;;;;;;;19.07;9.60;;;;;;;-6.60;67.19;95652.38;4999139;28;20029;-92
2022/01/23 07:16:36;;;;;;;22.03;10.00;;;;;;;-5.70;66.74;95746.28;4998965;28;20026;-92
2022/01/23 07:19:02;;;;;;;22.37;9.97;;;;;;;-8.91;66.49;95273.31;4998564;28;20061;-92
2022/01/23 07:21:27;;;;;;;23.03;10.27;;;;;;;-5.65;67.36;95751.81;4999623;28;20053;-91
2022/01/23 07:23:53;;;;;;;24.57;10.70;;;;;;;-8.86;66.42;95237.72;4982677;28;20050;-92
2022/01/23 07:26:22;;;;;;;28.97;11.83;;;;;;;-8.08;67.16;95360.00;4999180;28;20473;-92
2022/01/23 07:28:50;;;;;;;25.67;12.17;;;;;;;-8.22;67.29;95350.31;5016774;28;20033;-92
2022/01/23 07:31:32;;;;;;;34.97;11.97;;;;;;;-6.31;66.79;95626.94;4999978;28;20173;-92
2022/01/23 07:34:00;;;;;;;27.20;11.47;;;;;;;-5.32;67.76;95758.59;4998655;28;20045;-92
2022/01/23 07:36:26;;;;;;;44.13;12.43;;;;;;;-7.60;67.68;95371.44;4983254;28;20033;-92
2022/01/23 07:38:52;;;;;;;26.00;11.33;;;;;;;-5.55;66.68;95660.22;4998773;28;20026;-92
2022/01/23 07:41:17;;;;;;;22.63;10.57;;;;;;;-7.65;66.76;95350.50;5016405;28;20021;-91
2022/01/23 07:43:43;;;;;;;25.92;10.40;;;;;;;-5.50;65.93;95690.75;5016439;28;20026;-92
2022/01/23 07:46:08;;;;;;;23.13;11.07;;;;;;;-6.08;67.33;95603.91;4998551;28;20029;-92
2022/01/23 07:48:35;;;;;;;28.02;10.18;;;;;;;-6.41;66.37;95554.06;4998300;28;20053;-91
2022/01/23 07:51:00;;;;;;;25.85;10.70;;;;;;;-6.61;65.84;95483.06;4998774;28;20049;-91
2022/01/23 07:53:26;;;;;;;22.83;10.82;;;;;;;-8.15;65.94;95237.25;4998860;28;20041;-91
2022/01/23 07:55:51;;;;;;;21.52;10.18;;;;;;;-5.18;66.67;95708.81;5003156;28;20052;-90
2022/01/23 07:58:18;;;;;;;18.63;9.32;;;;;;;-7.68;66.25;95336.16;4997696;28;20033;-91
2022/01/23 08:01:00;;;;;;;20.72;9.22;;;;;;;-5.98;67.06;95608.91;1828429;28;10022875;-91
2022/01/23 08:03:25;;;;;;;27.02;11.75;;;;;;;-6.16;66.44;95577.28;3948856;28;10001122;-92
2022/01/23 08:05:51;;;;;;;30.52;10.88;;;;;;;-5.80;66.38;95598.41;4980501;28;20038;-91
2022/01/23 08:08:18;;;;;;;24.05;10.25;;;;;;;-9.90;65.19;94998.19;4978800;28;20190;-91
2022/01/23 08:10:43;;;;;;;25.13;10.73;;;;;;;-7.22;66.57;95427.56;4964409;28;20047;-91
2022/01/23 08:13:09;;;;;;;25.23;10.73;;;;;;;-5.49;66.13;95689.75;4979657;28;20121;-91
2022/01/23 08:15:35;;;;;;;25.17;10.73;;;;;;;-7.11;64.98;95403.25;4979841;28;20027;-92
2022/01/23 08:18:02;;;;;;;33.40;11.02;;;;;;;-6.87;65.69;95433.41;4979231;28;20041;-92
2022/01/23 08:20:28;;;;;;;23.35;10.05;;;;;;;-7.59;64.85;95340.38;4979869;28;20121;-91
2022/01/23 08:22:54;;;;;;;20.13;9.13;;;;;;;-5.77;64.53;95640.19;4979442;28;20035;-91
2022/01/23 08:25:20;;;;;;;19.40;8.80;;;;;;;-10.29;64.22;94969.66;4981195;28;20061;-92
2022/01/23 08:27:45;;;;;;;23.27;9.27;;;;;;;-7.52;64.31;95374.84;4979686;28;20035;-92
2022/01/23 08:30:13;;;;;;;21.52;9.05;;;;;;;-5.38;64.63;95686.06;4979479;28;20034;-91
2022/01/23 08:32:38;;;;;;;18.95;8.15;;;;;;;-8.23;64.23;95256.88;4980636;28;20041;-92
2022/01/23 08:35:04;;;;;;;17.52;9.18;;;;;;;-5.79;65.37;95621.47;4981812;28;20114;-91
2022/01/23 08:37:30;;;;;;;21.00;9.90;;;;;;;-5.18;65.02;95706.22;4978951;28;20402;-92
2022/01/23 08:39:56;;;;;;;23.02;8.82;;;;;;;-4.78;64.74;95766.63;4978668;28;20038;-92
2022/01/23 08:42:21;;;;;;;27.95;9.13;;;;;;;-5.06;64.17;95725.63;4995304;28;20039;-91
2022/01/23 08:44:48;;;;;;;23.75;9.90;;;;;;;-5.13;64.39;95692.81;4978646;28;20418;-92
2022/01/23 08:47:13;;;;;;;19.35;8.65;;;;;;;-5.73;63.13;95612.28;4978345;28;20050;-92
2022/01/23 08:49:45;;;;;;;23.92;8.88;;;;;;;-5.09;63.21;95720.75;4979400;28;20430;-92
2022/01/23 08:52:11;;;;;;;16.58;7.78;;;;;;;-5.12;63.71;95707.38;4979661;28;20031;-92
2022/01/23 08:54:37;;;;;;;17.83;8.15;;;;;;;-6.54;63.20;95493.53;4978851;28;20042;-92
2022/01/23 08:57:03;;;;;;;16.52;7.72;;;;;;;-5.21;63.08;95683.28;4980085;28;20034;-92
2022/01/23 08:59:28;;;;;;;15.68;8.23;;;;;;;-5.06;63.47;95699.75;4992595;28;20094;-92
2022/01/23 09:01:54;;;;;;;17.48;8.73;;;;;;;-7.54;63.42;95306.41;5001086;28;20037;-92
2022/01/23 09:04:19;;;;;;;20.45;9.32;;;;;;;-4.61;63.71;95750.09;5001371;28;20093;-92
2022/01/23 09:06:46;;;;;;;26.40;10.32;;;;;;;-4.62;64.00;95727.78;5000999;28;20045;-92
2022/01/23 09:09:19;;;;;;;26.13;8.55;;;;;;;-6.54;61.92;95453.06;5001112;28;20118;-92
2022/01/23 09:11:58;;;;;;;20.38;8.60;;;;;;;-4.82;61.60;95703.25;5001394;28;20040;-91
2022/01/23 09:14:24;;;;;;;18.08;8.20;;;;;;;-6.58;62.70;95410.50;4986948;28;20034;-92
2022/01/23 09:16:51;;;;;;;21.58;8.85;;;;;;;-4.37;61.62;95757.81;5015891;28;20037;-92
2022/01/23 09:19:19;;;;;;;18.85;8.30;;;;;;;-7.05;61.97;95320.13;5020458;28;20045;-91
2022/01/23 09:21:45;;;;;;;20.55;8.35;;;;;;;-6.64;62.12;95399.06;5016940;28;20034;-92
2022/01/23 09:24:11;;;;;;;23.10;8.65;;;;;;;-6.47;62.64;95410.16;5002733;28;20065;-92
2022/01/23 09:26:37;;;;;;;14.98;7.70;;;;;;;-7.43;61.24;95270.03;5001142;28;20461;-92
2022/01/23 09:29:13;;;;;;;13.20;6.90;;;;;;;-6.79;61.30;95464.38;5000456;28;20034;-92
2022/01/23 09:31:52;;;;;;;19.80;8.18;;;;;;;-4.47;61.39;95751.19;5000748;28;20412;-92
2022/01/23 09:34:21;;;;;;;25.50;8.65;;;;;;;-5.81;61.94;95552.88;5000733;28;20128;-92
2022/01/23 09:36:47;;;;;;;15.82;7.80;;;;;;;-4.39;62.93;95746.00;5000931;28;20029;-92
2022/01/23 09:39:15;;;;;;;26.98;8.55;;;;;;;-4.35;62.39;95747.28;5001237;28;20036;-92
2022/01/23 09:42:11;;;;;;;17.17;7.53;;;;;;;-5.05;61.98;95659.19;5018358;28;20176;-91
2022/01/23 09:44:41;;;;;;;22.77;8.20;;;;;;;-5.97;62.99;95543.41;4999862;28;20041;-92
2022/01/23 09:47:08;;;;;;;14.23;7.18;;;;;;;-7.57;62.45;95242.34;5018789;28;20041;-92
2022/01/23 09:49:34;;;;;;;21.02;7.40;;;;;;;-5.41;61.87;95599.28;4983397;28;20046;-91
2022/01/23 09:52:02;;;;;;;26.92;9.18;;;;;;;-4.32;63.03;95737.38;4998803;28;20096;-92
2022/01/23 09:54:30;;;;;;;20.27;7.78;;;;;;;-5.52;62.31;95556.53;4999437;28;20427;-91
2022/01/23 09:57:02;;;;;;;17.75;8.13;;;;;;;-4.25;62.21;95741.88;5000426;28;20037;-92
2022/01/23 09:59:29;;;;;;;18.25;8.55;;;;;;;-5.04;61.78;95644.47;4999958;28;20038;-92
2022/01/23 10:01:56;;;;;;;15.52;7.88;;;;;;;-8.07;61.29;95127.44;5000095;28;20061;-92
2022/01/23 10:04:24;;;;;;;16.10;7.30;;;;;;;-7.21;61.18;95255.69;5000398;28;20038;-92
2022/01/23 10:06:50;;;;;;;16.33;7.25;;;;;;;-4.18;61.33;95727.28;5000515;28;20088;-92
2022/01/23 10:09:18;;;;;;;15.50;6.90;;;;;;;-4.25;59.89;95731.53;4984037;28;20033;-91
2022/01/23 10:11:46;;;;;;;12.43;7.03;;;;;;;-7.13;60.86;95295.16;5000606;28;20120;-91
2022/01/23 10:14:12;;;;;;;15.35;7.13;;;;;;;-7.48;61.02;95224.16;5000502;28;20513;-91
2022/01/23 10:16:39;;;;;;;13.25;6.72;;;;;;;-4.95;61.49;95609.81;4999221;28;20026;-91
2022/01/23 10:19:05;;;;;;;18.02;7.38;;;;;;;-5.87;61.57;95451.81;5002648;28;20033;-92
2022/01/23 10:21:35;;;;;;;19.90;7.68;;;;;;;-6.16;61.47;95389.63;4999606;28;20123;-92
2022/01/23 10:24:01;;;;;;;24.80;8.07;;;;;;;-4.05;62.16;95701.66;5018380;28;20029;-91
2022/01/23 10:26:50;;;;;;;15.18;7.30;;;;;;;-4.56;61.53;95623.56;5000301;28;20021;-91
2022/01/23 10:29:24;;;;;;;24.90;8.35;;;;;;;-5.23;59.99;95545.59;5000195;28;20041;-92
2022/01/23 10:32:10;;;;;;;13.38;6.32;;;;;;;-5.29;60.84;95522.22;4999852;28;20026;-91
2022/01/23 10:34:59;;;;;;;17.23;7.25;;;;;;;-5.50;61.26;95479.66;4999763;28;20036;-92
2022/01/23 10:37:37;;;;;;;12.93;6.53;;;;;;;-4.12;61.22;95680.78;4999310;28;20037;-92
2022/01/23 10:40:12;;;;;;;16.67;7.30;;;;;;;-4.53;59.95;95606.91;4999484;28;20025;-91
2022/01/23 10:48:36;;;;;;;20.00;7.38;;;;;;;-4.89;60.83;95534.97;690415;28;10001959;-91
2022/01/23 10:51:21;;;;;;;14.55;6.47;;;;;;;-4.38;59.75;95652.63;5010566;28;20336;-91
2022/01/23 10:54:24;;;;;;;10.85;5.88;;;;;;;-4.06;60.80;95674.13;5033164;28;20029;-92
2022/01/23 10:56:49;;;;;;;14.15;6.20;;;;;;;-4.04;59.67;95698.06;5000235;28;20097;-91
2022/01/23 10:59:15;;;;;;;20.17;6.50;;;;;;;-5.87;60.20;95394.97;4999770;28;20156;-91
2022/01/23 11:01:59;;;;;;;17.92;7.35;;;;;;;-4.97;59.87;95535.00;5016059;28;20504;-91
2022/01/23 11:04:25;;;;;;;14.25;6.50;;;;;;;-4.03;61.06;95659.03;4999518;28;20152;-92
2022/01/23 11:07:02;;;;;;;12.60;6.18;;;;;;;-8.31;58.62;94991.91;5000115;28;21442;-91
2022/01/23 11:09:40;;;;;;;14.57;6.43;;;;;;;-6.21;59.37;95354.97;4999455;28;20093;-92
2022/01/23 11:12:23;;;;;;;16.45;6.10;;;;;;;-4.21;59.91;95614.50;4999427;28;20029;-91
2022/01/23 11:17:54;;;;;;;;;;;;;;;-3.85;58.25;95651.00;5018597;28;20474;-92
2022/01/23 11:20:36;;;;;;;14.90;5.80;;;;;;;-3.94;58.50;95650.25;5016425;28;19952;-92
2022/01/23 11:23:23;;;;;;;14.05;6.53;;;;;;;-4.26;59.90;95616.78;4998816;28;20465;-91
2022/01/23 11:25:57;;;;;;;13.52;5.10;;;;;;;-4.04;59.38;95639.28;5016377;28;20479;-91
2022/01/23 11:28:47;;;;;;;16.50;5.60;;;;;;;-5.39;59.65;95428.53;4998696;28;20397;-92
2022/01/23 11:31:18;;;;;;;13.73;6.40;;;;;;;-4.11;58.85;95642.75;4999266;28;20123;-91
2022/01/23 11:33:45;;;;;;;;;;;;;;;-3.94;59.80;95652.03;4999037;28;20400;-91
2022/01/23 11:36:11;;;;;;;12.35;5.35;;;;;;;-4.91;59.73;95469.66;5015875;28;20028;-92
2022/01/23 11:38:38;;;;;;;17.27;6.68;;;;;;;-5.03;59.37;95473.59;4998616;28;20034;-92
2022/01/23 11:55:34;;;;;;;14.82;6.00;;;;;;;-5.18;59.23;95485.63;5016804;28;20399;-92
2022/01/23 11:58:03;;;;;;;12.10;5.60;;;;;;;-4.88;59.89;95471.88;4999671;28;20030;-91
2022/01/23 12:00:43;;;;;;;12.65;4.90;;;;;;;-4.15;59.82;95606.03;2118010;28;10022845;-92
2022/01/23 12:03:19;;;;;;;14.07;6.53;;;;;;;-4.09;60.27;95601.94;3604070;28;10001314;-92
2022/01/23 12:06:09;;;;;;;11.63;6.53;;;;;;;-4.04;60.81;95603.03;4976077;28;20038;-91
2022/01/23 12:08:35;;;;;;;11.88;5.75;;;;;;;-6.48;61.23;95234.91;4976299;28;20049;-91
2022/01/23 12:11:48;;;;;;;12.23;5.57;;;;;;;-4.97;60.71;95456.59;4976049;28;20065;-91
2022/01/23 12:16:53;;;;;;;16.15;6.03;;;;;;;-5.90;60.56;95312.72;4977251;28;20043;-92
2022/01/23 12:19:22;;;;;;;10.27;5.80;;;;;;;-4.04;61.53;95590.06;4975713;28;20042;-91
2022/01/23 12:21:52;;;;;;;12.35;5.95;;;;;;;-7.02;61.13;95139.34;4975787;28;20098;-91
2022/01/23 12:24:19;;;;;;;13.15;5.68;;;;;;;-6.54;61.32;95218.28;4975147;28;20034;-91
2022/01/23 12:26:47;;;;;;;16.60;5.57;;;;;;;-7.68;60.24;95080.44;4976253;28;20031;-92
2022/01/23 12:29:23;;;;;;;17.95;6.35;;;;;;;-6.79;60.93;95234.84;4976382;28;20101;-90
2022/01/23 12:31:50;;;;;;;11.02;5.43;;;;;;;-4.43;61.00;95555.72;4975557;28;20433;-91
2022/01/23 12:34:16;;;;;;;12.32;6.25;;;;;;;-4.19;62.25;95603.94;4975401;28;20045;-91
2022/01/23 12:36:53;;;;;;;15.38;6.88;;;;;;;-6.91;61.47;95185.38;4975577;28;20117;-91
2022/01/23 12:39:19;;;;;;;13.05;5.50;;;;;;;-6.47;60.34;95226.97;4975818;28;20080;-92
2022/01/23 12:41:51;;;;;;;14.32;6.30;;;;;;;-4.18;62.23;95590.00;4978818;28;20103;-91
2022/01/23 12:44:22;;;;;;;;;;;;;;;-4.16;61.69;95591.47;4979478;28;20035;-91
2022/01/23 12:46:58;;;;;;;17.48;5.10;;;;;;;-4.17;62.21;95607.16;4980278;28;19978;-91
2022/01/23 12:49:34;;;;;;;11.98;5.05;;;;;;;-6.73;61.62;95229.03;4978069;28;20046;-92
2022/01/23 12:52:05;;;;;;;17.17;6.05;;;;;;;-4.21;61.39;95624.84;4979330;28;20520;-91
2022/01/23 12:54:33;;;;;;;11.35;5.38;;;;;;;-4.77;62.03;95514.69;4980248;28;20375;-91
2022/01/23 12:57:13;;;;;;;13.85;5.50;;;;;;;-4.28;62.49;95604.03;4979746;28;20231;-90
2022/01/23 12:59:42;;;;;;;12.13;5.78;;;;;;;-4.29;62.19;95622.31;4987081;28;20069;-91
2022/01/23 13:02:15;;;;;;;13.32;6.07;;;;;;;-5.48;63.45;95400.16;4967188;28;20042;-92
2022/01/23 13:04:45;;;;;;;14.30;7.25;;;;;;;-5.78;63.13;95385.44;4982055;28;20034;-91
2022/01/23 13:07:47;;;;;;;14.65;5.45;;;;;;;-5.96;62.40;95348.75;5000372;28;20509;-91
2022/01/23 13:12:49;;;;;;;18.02;6.78;;;;;;;-6.82;63.39;95220.50;5017396;28;20065;-91
2022/01/23 13:31:42;;;;;;;14.00;6.22;;;;;;;-5.19;63.38;95484.03;4999395;28;20137;-92
2022/01/23 13:34:27;;;;;;;16.52;6.05;;;;;;;-5.47;62.99;95440.53;4982196;28;20042;-92
2022/01/23 13:37:11;;;;;;;16.80;6.57;;;;;;;-4.23;63.76;95639.75;4982420;28;20466;-91
2022/01/23 13:39:47;;;;;;;14.73;6.80;;;;;;;-4.21;62.66;95631.81;4999203;28;20044;-92
2022/01/23 13:42:49;;;;;;;11.85;6.07;;;;;;;-5.71;62.87;95398.47;4981902;28;20097;-91
2022/01/23 13:51:30;;;;;;;16.23;6.40;;;;;;;-5.25;62.35;95438.16;4998674;28;20045;-91
2022/01/23 14:02:36;;;;;;;17.35;7.90;;;;;;;-4.11;63.62;95607.28;1722218;28;10002057;-91
2022/01/23 14:05:15;;;;;;;16.50;7.10;;;;;;;-3.98;63.06;95612.72;4997621;28;20285;-91
2022/01/23 14:07:46;;;;;;;14.43;6.40;;;;;;;-4.94;61.86;95518.31;4981391;28;20513;-91
2022/01/23 14:10:20;;;;;;;15.43;7.38;;;;;;;-5.08;62.75;95473.28;4980468;28;20486;-91
2022/01/23 14:12:48;;;;;;;18.60;8.60;;;;;;;-5.40;62.93;95458.75;4995990;28;20509;-92
2022/01/23 14:15:23;;;;;;;14.10;6.50;;;;;;;-6.54;61.25;95280.22;4997178;28;20038;-92
2022/01/23 14:18:20;;;;;;;10.20;5.45;;;;;;;-4.85;61.33;95587.97;4999550;28;20034;-91
2022/01/23 14:21:00;;;;;;;23.45;7.80;;;;;;;-4.20;61.59;95629.06;4979705;28;20064;-91
2022/01/23 14:23:25;;;;;;;16.70;7.45;;;;;;;-5.66;62.92;95404.78;4996767;28;20038;-91
2022/01/23 14:25:59;;;;;;;15.48;7.65;;;;;;;-4.71;62.20;95574.31;4979856;28;20042;-91
2022/01/23 14:28:29;;;;;;;17.20;7.55;;;;;;;-4.15;63.13;95636.31;4981328;28;20038;-91
2022/01/23 14:30:58;;;;;;;18.30;8.63;;;;;;;-4.11;62.73;95640.16;4996925;28;20530;-92
2022/01/23 14:33:35;;;;;;;19.08;8.10;;;;;;;-6.72;63.44;95251.25;4997742;28;20038;-92
2022/01/23 14:36:16;;;;;;;19.58;8.40;;;;;;;-5.15;63.38;95487.88;4998428;28;20080;-92
2022/01/23 14:38:57;;;;;;;18.08;6.57;;;;;;;-4.19;62.87;95647.97;4981293;28;20354;-92
2022/01/23 14:41:33;;;;;;;;;;;;;;;-4.30;63.25;95649.19;4996854;28;20592;-92
2022/01/23 14:44:00;;;;;;;22.83;7.43;;;;;;;-5.32;64.35;95525.94;4980839;28;19913;-92
2022/01/23 14:46:26;;;;;;;16.10;8.07;;;;;;;-4.49;63.84;95645.22;4997030;28;20478;-92
2022/01/23 14:48:59;;;;;;;20.15;7.40;;;;;;;-4.87;64.15;95592.50;4980276;28;20128;-91
2022/01/23 14:51:27;;;;;;;14.73;7.88;;;;;;;-4.41;63.84;95649.53;4998651;28;20151;-91
2022/01/23 14:53:53;;;;;;;18.65;8.15;;;;;;;-9.87;63.75;94797.78;4996261;28;20050;-92
2022/01/23 14:56:20;;;;;;;24.33;8.88;;;;;;;-4.30;64.18;95654.34;4980677;28;20124;-92
2022/01/23 14:58:47;;;;;;;20.13;8.50;;;;;;;-6.17;64.84;95361.38;4995912;28;20103;-93
2022/01/23 15:01:14;;;;;;;19.42;7.88;;;;;;;-7.69;64.05;95166.34;4980088;28;20060;-92
2022/01/23 15:03:56;;;;;;;22.52;8.77;;;;;;;-4.89;64.57;95606.59;4979766;28;20030;-91
2022/01/23 15:06:24;;;;;;;22.98;9.32;;;;;;;-5.32;64.84;95543.22;4996995;28;20045;-91
2022/01/23 15:08:50;;;;;;;18.73;8.82;;;;;;;-5.43;65.79;95517.75;4995940;28;20425;-91